sensor_id;sensor_type;location;lat;lon;timestamp;temperature;humidity
18888;DHT22;9576;47.792;9.628;2022-08-21T00:02:22;16.10;99.90
18888;DHT22;9576;47.792;9.628;2022-08-21T00:05:25;16.00;99.90
18888;DHT22;9576;47.792;9.628;2022-08-21T00:08:28;16.00;99.90
18888;DHT22;9576;47.792;9.628;2022-08-21T00:11:31;15.90;99.90
18888;DHT22;9576;47.792;9.628;2022-08-21T00:14:35;15.90;99.90
18888;DHT22;9576;47.792;9.628;2022-08-21T00:17:37;15.90;99.90
18888;DHT22;9576;47.792;9.628;2022-08-21T00:20:41;15.90;99.90
18888;DHT22;9576;47.792;9.628;2022-08-21T00:23:43;15.80;99.90
18888;DHT22;9576;47.792;9.628;2022-08-21T00:26:46;15.80;99.90
18888;DHT22;9576;47.792;9.628;2022-08-21T00:29:49;15.70;99.90
18888;DHT22;9576;47.792;9.628;2022-08-21T00:32:55;15.70;99.90
18888;DHT22;9576;47.792;9.628;2022-08-21T00:35:57;15.70;99.90
18888;DHT22;9576;47.792;9.628;2022-08-21T00:39:00;15.70;99.90
18888;DHT22;9576;47.792;9.628;2022-08-21T00:42:03;15.60;99.90
18888;DHT22;9576;47.792;9.628;2022-08-21T00:45:08;15.60;99.90
18888;DHT22;9576;47.792;9.628;2022-08-21T00:48:10;15.50;99.90
18888;DHT22;9576;47.792;9.628;2022-08-21T00:51:17;15.50;99.90
18888;DHT22;9576;47.792;9.628;2022-08-21T00:54:24;15.60;99.90
18888;DHT22;9576;47.792;9.628;2022-08-21T00:57:30;15.60;99.90
18888;DHT22;9576;47.792;9.628;2022-08-21T01:00:37;15.60;99.90
18888;DHT22;9576;47.792;9.628;2022-08-21T01:03:40;15.60;99.90
18888;DHT22;9576;47.792;9.628;2022-08-21T01:06:44;15.60;99.90
18888;DHT22;9576;47.792;9.628;2022-08-21T01:09:47;15.60;99.90
18888;DHT22;9576;47.792;9.628;2022-08-21T01:12:50;15.60;99.90
18888;DHT22;9576;47.792;9.628;2022-08-21T01:15:58;15.60;99.90
18888;DHT22;9576;47.792;9.628;2022-08-21T01:19:01;15.60;99.90
18888;DHT22;9576;47.792;9.628;2022-08-21T01:22:05;15.50;99.90
18888;DHT22;9576;47.792;9.628;2022-08-21T01:25:09;15.50;99.90
18888;DHT22;9576;47.792;9.628;2022-08-21T01:28:13;15.50;99.90
18888;DHT22;9576;47.792;9.628;2022-08-21T01:31:18;15.50;99.90
18888;DHT22;9576;47.792;9.628;2022-08-21T01:34:21;15.50;99.90
18888;DHT22;9576;47.792;9.628;2022-08-21T01:37:25;15.40;99.90
18888;DHT22;9576;47.792;9.628;2022-08-21T01:40:28;15.30;99.90
18888;DHT22;9576;47.792;9.628;2022-08-21T01:43:30;15.30;99.90
18888;DHT22;9576;47.792;9.628;2022-08-21T01:46:32;15.30;99.90
18888;DHT22;9576;47.792;9.628;2022-08-21T01:49:35;15.30;99.90
18888;DHT22;9576;47.792;9.628;2022-08-21T01:52:39;15.30;99.90
18888;DHT22;9576;47.792;9.628;2022-08-21T01:55:41;15.30;99.90
18888;DHT22;9576;47.792;9.628;2022-08-21T01:58:45;15.30;99.90
18888;DHT22;9576;47.792;9.628;2022-08-21T02:01:47;15.30;99.90
18888;DHT22;9576;47.792;9.628;2022-08-21T02:04:50;15.30;99.90
18888;DHT22;9576;47.792;9.628;2022-08-21T02:07:54;15.30;99.90
18888;DHT22;9576;47.792;9.628;2022-08-21T02:10:57;15.30;99.90
18888;DHT22;9576;47.792;9.628;2022-08-21T02:13:59;15.30;99.90
18888;DHT22;9576;47.792;9.628;2022-08-21T02:17:01;15.20;99.90
18888;DHT22;9576;47.792;9.628;2022-08-21T02:20:04;15.20;99.90
18888;DHT22;9576;47.792;9.628;2022-08-21T02:23:10;15.20;99.90
18888;DHT22;9576;47.792;9.628;2022-08-21T02:26:12;15.10;99.90
18888;DHT22;9576;47.792;9.628;2022-08-21T02:29:15;15.00;99.90
18888;DHT22;9576;47.792;9.628;2022-08-21T02:32:17;15.00;99.90
18888;DHT22;9576;47.792;9.628;2022-08-21T02:35:19;14.90;99.90
18888;DHT22;9576;47.792;9.628;2022-08-21T02:38:27;14.80;99.90
18888;DHT22;9576;47.792;9.628;2022-08-21T02:41:29;14.80;99.90
18888;DHT22;9576;47.792;9.628;2022-08-21T02:44:32;14.80;99.90
18888;DHT22;9576;47.792;9.628;2022-08-21T02:47:34;14.70;99.90
18888;DHT22;9576;47.792;9.628;2022-08-21T02:50:39;14.70;99.90
18888;DHT22;9576;47.792;9.628;2022-08-21T02:53:44;14.70;99.90
18888;DHT22;9576;47.792;9.628;2022-08-21T02:56:46;14.60;99.90
18888;DHT22;9576;47.792;9.628;2022-08-21T02:59:48;14.60;99.90
18888;DHT22;9576;47.792;9.628;2022-08-21T03:02:50;14.60;99.90
18888;DHT22;9576;47.792;9.628;2022-08-21T03:05:54;14.50;99.90
18888;DHT22;9576;47.792;9.628;2022-08-21T03:08:57;14.50;99.90
18888;DHT22;9576;47.792;9.628;2022-08-21T03:11:59;14.50;99.90
18888;DHT22;9576;47.792;9.628;2022-08-21T03:15:03;14.50;99.90
18888;DHT22;9576;47.792;9.628;2022-08-21T03:18:05;14.40;99.90
18888;DHT22;9576;47.792;9.628;2022-08-21T03:21:07;14.40;99.90
18888;DHT22;9576;47.792;9.628;2022-08-21T03:24:11;14.40;99.90
18888;DHT22;9576;47.792;9.628;2022-08-21T03:27:13;14.40;99.90
18888;DHT22;9576;47.792;9.628;2022-08-21T03:30:17;14.40;99.90
18888;DHT22;9576;47.792;9.628;2022-08-21T03:33:21;14.40;99.90
18888;DHT22;9576;47.792;9.628;2022-08-21T03:36:23;14.40;99.90
18888;DHT22;9576;47.792;9.628;2022-08-21T03:39:27;14.30;99.90
18888;DHT22;9576;47.792;9.628;2022-08-21T03:42:29;14.30;99.90
18888;DHT22;9576;47.792;9.628;2022-08-21T03:45:31;14.40;99.90
18888;DHT22;9576;47.792;9.628;2022-08-21T03:48:35;14.30;99.90
18888;DHT22;9576;47.792;9.628;2022-08-21T03:51:37;14.40;99.90
18888;DHT22;9576;47.792;9.628;2022-08-21T03:54:41;14.40;99.90
18888;DHT22;9576;47.792;9.628;2022-08-21T03:57:43;14.40;99.90
18888;DHT22;9576;47.792;9.628;2022-08-21T04:00:46;14.30;99.90
18888;DHT22;9576;47.792;9.628;2022-08-21T04:03:49;14.20;99.90
18888;DHT22;9576;47.792;9.628;2022-08-21T04:06:51;14.20;99.90
18888;DHT22;9576;47.792;9.628;2022-08-21T04:09:54;14.20;99.90
18888;DHT22;9576;47.792;9.628;2022-08-21T04:12:57;14.20;99.90
18888;DHT22;9576;47.792;9.628;2022-08-21T04:15:59;14.20;99.90
18888;DHT22;9576;47.792;9.628;2022-08-21T04:19:01;14.30;99.90
18888;DHT22;9576;47.792;9.628;2022-08-21T04:22:03;14.20;99.90
18888;DHT22;9576;47.792;9.628;2022-08-21T04:25:08;14.30;99.90
18888;DHT22;9576;47.792;9.628;2022-08-21T04:28:10;14.30;99.90
18888;DHT22;9576;47.792;9.628;2022-08-21T04:31:12;14.30;99.90
18888;DHT22;9576;47.792;9.628;2022-08-21T04:34:14;14.30;99.90
18888;DHT22;9576;47.792;9.628;2022-08-21T04:37:16;14.30;99.90
18888;DHT22;9576;47.792;9.628;2022-08-21T04:40:21;14.30;99.90
18888;DHT22;9576;47.792;9.628;2022-08-21T04:43:25;14.30;99.90
18888;DHT22;9576;47.792;9.628;2022-08-21T04:46:27;14.40;99.90
18888;DHT22;9576;47.792;9.628;2022-08-21T04:49:29;14.40;99.90
18888;DHT22;9576;47.792;9.628;2022-08-21T04:52:32;14.40;99.90
18888;DHT22;9576;47.792;9.628;2022-08-21T04:55:36;14.40;99.90
18888;DHT22;9576;47.792;9.628;2022-08-21T04:58:39;14.50;99.90
18888;DHT22;9576;47.792;9.628;2022-08-21T05:01:43;14.50;99.90
18888;DHT22;9576;47.792;9.628;2022-08-21T05:04:50;14.50;99.90
18888;DHT22;9576;47.792;9.628;2022-08-21T05:07:53;14.60;99.90
18888;DHT22;9576;47.792;9.628;2022-08-21T05:10:58;14.60;99.90
18888;DHT22;9576;47.792;9.628;2022-08-21T05:14:00;14.60;99.90
18888;DHT22;9576;47.792;9.628;2022-08-21T05:17:02;14.60;99.90
18888;DHT22;9576;47.792;9.628;2022-08-21T05:20:05;14.60;99.90
18888;DHT22;9576;47.792;9.628;2022-08-21T05:23:09;14.70;99.90
18888;DHT22;9576;47.792;9.628;2022-08-21T05:26:13;14.70;99.90
18888;DHT22;9576;47.792;9.628;2022-08-21T05:29:15;14.80;99.90
18888;DHT22;9576;47.792;9.628;2022-08-21T05:32:18;14.90;99.90
18888;DHT22;9576;47.792;9.628;2022-08-21T05:35:20;14.90;99.90
18888;DHT22;9576;47.792;9.628;2022-08-21T05:38:22;15.00;99.90
18888;DHT22;9576;47.792;9.628;2022-08-21T05:41:27;15.10;99.90
18888;DHT22;9576;47.792;9.628;2022-08-21T05:44:29;15.20;99.90
18888;DHT22;9576;47.792;9.628;2022-08-21T05:47:31;15.20;99.90
18888;DHT22;9576;47.792;9.628;2022-08-21T05:50:34;15.30;99.90
18888;DHT22;9576;47.792;9.628;2022-08-21T05:53:38;15.30;99.90
18888;DHT22;9576;47.792;9.628;2022-08-21T05:56:44;15.20;99.90
18888;DHT22;9576;47.792;9.628;2022-08-21T05:59:46;15.30;99.90
18888;DHT22;9576;47.792;9.628;2022-08-21T06:02:48;15.40;99.90
18888;DHT22;9576;47.792;9.628;2022-08-21T06:05:51;15.50;99.90
18888;DHT22;9576;47.792;9.628;2022-08-21T06:08:53;15.70;99.90
18888;DHT22;9576;47.792;9.628;2022-08-21T06:11:57;15.70;99.90
18888;DHT22;9576;47.792;9.628;2022-08-21T06:14:59;15.90;99.90
18888;DHT22;9576;47.792;9.628;2022-08-21T06:18:01;15.90;99.90
18888;DHT22;9576;47.792;9.628;2022-08-21T06:21:04;16.00;99.90
18888;DHT22;9576;47.792;9.628;2022-08-21T06:24:06;16.10;99.90
18888;DHT22;9576;47.792;9.628;2022-08-21T06:27:10;16.20;99.90
18888;DHT22;9576;47.792;9.628;2022-08-21T06:30:12;16.20;99.90
18888;DHT22;9576;47.792;9.628;2022-08-21T06:33:15;16.30;99.90
18888;DHT22;9576;47.792;9.628;2022-08-21T06:36:18;16.40;99.90
18888;DHT22;9576;47.792;9.628;2022-08-21T06:39:21;16.40;99.90
18888;DHT22;9576;47.792;9.628;2022-08-21T06:42:25;16.40;99.90
18888;DHT22;9576;47.792;9.628;2022-08-21T06:45:28;16.30;99.90
18888;DHT22;9576;47.792;9.628;2022-08-21T06:48:30;16.20;99.90
18888;DHT22;9576;47.792;9.628;2022-08-21T06:51:33;16.30;99.90
18888;DHT22;9576;47.792;9.628;2022-08-21T06:54:36;16.30;99.90
18888;DHT22;9576;47.792;9.628;2022-08-21T06:57:40;16.30;99.90
18888;DHT22;9576;47.792;9.628;2022-08-21T07:00:44;16.30;99.90
18888;DHT22;9576;47.792;9.628;2022-08-21T07:03:47;16.40;99.90
18888;DHT22;9576;47.792;9.628;2022-08-21T07:06:49;16.40;99.90
18888;DHT22;9576;47.792;9.628;2022-08-21T07:09:51;16.50;99.90
18888;DHT22;9576;47.792;9.628;2022-08-21T07:12:55;16.40;99.90
18888;DHT22;9576;47.792;9.628;2022-08-21T07:15:57;16.60;99.90
18888;DHT22;9576;47.792;9.628;2022-08-21T07:18:59;16.60;99.90
18888;DHT22;9576;47.792;9.628;2022-08-21T07:22:02;16.60;99.90
18888;DHT22;9576;47.792;9.628;2022-08-21T07:25:05;16.70;99.90
18888;DHT22;9576;47.792;9.628;2022-08-21T07:28:09;16.80;99.90
18888;DHT22;9576;47.792;9.628;2022-08-21T07:31:13;16.80;99.90
18888;DHT22;9576;47.792;9.628;2022-08-21T07:34:16;16.80;99.90
18888;DHT22;9576;47.792;9.628;2022-08-21T07:37:18;16.80;99.90
18888;DHT22;9576;47.792;9.628;2022-08-21T07:40:21;16.90;99.90
18888;DHT22;9576;47.792;9.628;2022-08-21T07:43:25;17.00;99.90
18888;DHT22;9576;47.792;9.628;2022-08-21T07:46:27;17.10;99.90
18888;DHT22;9576;47.792;9.628;2022-08-21T07:49:29;17.10;99.90
18888;DHT22;9576;47.792;9.628;2022-08-21T07:52:32;17.20;99.90
18888;DHT22;9576;47.792;9.628;2022-08-21T07:55:34;17.40;99.90
18888;DHT22;9576;47.792;9.628;2022-08-21T07:58:38;17.40;99.90
18888;DHT22;9576;47.792;9.628;2022-08-21T08:01:40;17.60;99.90
18888;DHT22;9576;47.792;9.628;2022-08-21T08:04:42;17.50;99.90
18888;DHT22;9576;47.792;9.628;2022-08-21T08:07:45;17.60;99.90
18888;DHT22;9576;47.792;9.628;2022-08-21T08:10:48;17.60;99.90
18888;DHT22;9576;47.792;9.628;2022-08-21T08:13:52;17.80;99.90
18888;DHT22;9576;47.792;9.628;2022-08-21T08:16:54;17.90;99.90
18888;DHT22;9576;47.792;9.628;2022-08-21T08:19:57;18.10;99.90
18888;DHT22;9576;47.792;9.628;2022-08-21T08:23:00;18.10;99.90
18888;DHT22;9576;47.792;9.628;2022-08-21T08:26:02;18.30;99.90
18888;DHT22;9576;47.792;9.628;2022-08-21T08:29:06;18.40;99.90
18888;DHT22;9576;47.792;9.628;2022-08-21T08:32:08;18.60;99.90
18888;DHT22;9576;47.792;9.628;2022-08-21T08:35:10;18.80;99.90
18888;DHT22;9576;47.792;9.628;2022-08-21T08:38:13;18.90;99.90
18888;DHT22;9576;47.792;9.628;2022-08-21T08:41:19;19.00;99.90
18888;DHT22;9576;47.792;9.628;2022-08-21T08:44:24;19.10;99.90
18888;DHT22;9576;47.792;9.628;2022-08-21T08:47:27;19.20;99.90
18888;DHT22;9576;47.792;9.628;2022-08-21T08:50:36;19.30;99.90
18888;DHT22;9576;47.792;9.628;2022-08-21T08:53:51;19.50;99.90
18888;DHT22;9576;47.792;9.628;2022-08-21T08:56:54;19.50;99.90
18888;DHT22;9576;47.792;9.628;2022-08-21T09:00:00;19.60;99.90
18888;DHT22;9576;47.792;9.628;2022-08-21T09:03:03;19.70;99.90
18888;DHT22;9576;47.792;9.628;2022-08-21T09:06:11;19.70;99.90
18888;DHT22;9576;47.792;9.628;2022-08-21T09:09:25;19.80;99.90
18888;DHT22;9576;47.792;9.628;2022-08-21T09:12:36;19.80;99.90
18888;DHT22;9576;47.792;9.628;2022-08-21T09:15:47;20.00;99.90
18888;DHT22;9576;47.792;9.628;2022-08-21T09:18:58;20.00;99.90
18888;DHT22;9576;47.792;9.628;2022-08-21T09:22:08;20.00;99.90
18888;DHT22;9576;47.792;9.628;2022-08-21T09:25:18;20.10;99.90
18888;DHT22;9576;47.792;9.628;2022-08-21T09:28:21;20.30;99.90
18888;DHT22;9576;47.792;9.628;2022-08-21T09:31:27;20.50;99.90
18888;DHT22;9576;47.792;9.628;2022-08-21T09:34:30;20.70;99.90
18888;DHT22;9576;47.792;9.628;2022-08-21T09:37:35;20.60;99.90
18888;DHT22;9576;47.792;9.628;2022-08-21T09:40:46;20.90;99.90
18888;DHT22;9576;47.792;9.628;2022-08-21T09:43:53;21.20;99.90
18888;DHT22;9576;47.792;9.628;2022-08-21T09:46:57;21.40;99.90
18888;DHT22;9576;47.792;9.628;2022-08-21T09:50:09;21.60;99.90
18888;DHT22;9576;47.792;9.628;2022-08-21T09:53:19;21.80;99.90
18888;DHT22;9576;47.792;9.628;2022-08-21T09:56:27;22.00;99.90
18888;DHT22;9576;47.792;9.628;2022-08-21T09:59:46;22.10;99.90
18888;DHT22;9576;47.792;9.628;2022-08-21T10:02:50;22.10;99.90
18888;DHT22;9576;47.792;9.628;2022-08-21T10:05:55;22.00;99.90
18888;DHT22;9576;47.792;9.628;2022-08-21T10:09:07;22.10;99.90
18888;DHT22;9576;47.792;9.628;2022-08-21T10:12:16;22.00;99.90
18888;DHT22;9576;47.792;9.628;2022-08-21T10:15:24;21.80;99.90
18888;DHT22;9576;47.792;9.628;2022-08-21T10:18:37;21.80;99.90
18888;DHT22;9576;47.792;9.628;2022-08-21T10:21:56;21.90;99.90
18888;DHT22;9576;47.792;9.628;2022-08-21T10:25:06;21.90;99.90
18888;DHT22;9576;47.792;9.628;2022-08-21T10:28:16;22.10;99.90
18888;DHT22;9576;47.792;9.628;2022-08-21T10:31:28;22.20;99.90
18888;DHT22;9576;47.792;9.628;2022-08-21T10:34:40;22.30;99.90
18888;DHT22;9576;47.792;9.628;2022-08-21T10:37:52;22.60;99.90
18888;DHT22;9576;47.792;9.628;2022-08-21T10:41:05;22.90;99.90
18888;DHT22;9576;47.792;9.628;2022-08-21T10:44:17;22.70;99.90
18888;DHT22;9576;47.792;9.628;2022-08-21T10:47:30;22.90;99.90
18888;DHT22;9576;47.792;9.628;2022-08-21T10:50:41;23.00;99.90
18888;DHT22;9576;47.792;9.628;2022-08-21T10:53:59;22.90;99.90
18888;DHT22;9576;47.792;9.628;2022-08-21T10:57:07;22.90;99.90
18888;DHT22;9576;47.792;9.628;2022-08-21T11:00:14;23.10;99.90
18888;DHT22;9576;47.792;9.628;2022-08-21T11:03:21;23.30;99.90
18888;DHT22;9576;47.792;9.628;2022-08-21T11:06:29;23.50;99.90
18888;DHT22;9576;47.792;9.628;2022-08-21T11:09:32;23.50;99.90
18888;DHT22;9576;47.792;9.628;2022-08-21T11:12:40;23.50;99.90
18888;DHT22;9576;47.792;9.628;2022-08-21T11:15:48;23.50;99.90
18888;DHT22;9576;47.792;9.628;2022-08-21T11:18:55;23.70;99.90
18888;DHT22;9576;47.792;9.628;2022-08-21T11:22:06;23.90;99.90
18888;DHT22;9576;47.792;9.628;2022-08-21T11:25:16;23.90;99.90
18888;DHT22;9576;47.792;9.628;2022-08-21T11:28:23;23.90;99.90
18888;DHT22;9576;47.792;9.628;2022-08-21T11:31:39;24.00;99.90
18888;DHT22;9576;47.792;9.628;2022-08-21T11:34:52;24.30;99.90
18888;DHT22;9576;47.792;9.628;2022-08-21T11:38:08;24.50;99.90
18888;DHT22;9576;47.792;9.628;2022-08-21T11:41:21;24.70;99.90
18888;DHT22;9576;47.792;9.628;2022-08-21T11:44:32;25.00;99.90
18888;DHT22;9576;47.792;9.628;2022-08-21T11:47:51;25.40;99.90
18888;DHT22;9576;47.792;9.628;2022-08-21T11:50:56;25.20;99.90
18888;DHT22;9576;47.792;9.628;2022-08-21T11:54:05;25.40;99.90
18888;DHT22;9576;47.792;9.628;2022-08-21T11:57:15;25.50;99.90
18888;DHT22;9576;47.792;9.628;2022-08-21T12:00:21;25.60;99.90
18888;DHT22;9576;47.792;9.628;2022-08-21T12:03:29;25.90;99.90
18888;DHT22;9576;47.792;9.628;2022-08-21T12:06:37;26.00;99.90
18888;DHT22;9576;47.792;9.628;2022-08-21T12:09:52;26.00;99.90
18888;DHT22;9576;47.792;9.628;2022-08-21T12:13:06;26.70;99.90
18888;DHT22;9576;47.792;9.628;2022-08-21T12:16:13;26.90;99.90
18888;DHT22;9576;47.792;9.628;2022-08-21T12:19:29;27.20;99.90
18888;DHT22;9576;47.792;9.628;2022-08-21T12:22:37;27.50;99.90
18888;DHT22;9576;47.792;9.628;2022-08-21T12:25:43;27.40;99.90
18888;DHT22;9576;47.792;9.628;2022-08-21T12:28:45;27.40;99.90
18888;DHT22;9576;47.792;9.628;2022-08-21T12:31:58;27.40;99.90
18888;DHT22;9576;47.792;9.628;2022-08-21T12:35:06;27.60;99.90
18888;DHT22;9576;47.792;9.628;2022-08-21T12:38:15;27.50;99.90
18888;DHT22;9576;47.792;9.628;2022-08-21T12:41:21;27.90;99.90
18888;DHT22;9576;47.792;9.628;2022-08-21T12:44:32;28.00;99.90
18888;DHT22;9576;47.792;9.628;2022-08-21T12:47:44;27.90;99.90
18888;DHT22;9576;47.792;9.628;2022-08-21T12:50:50;28.20;99.90
18888;DHT22;9576;47.792;9.628;2022-08-21T12:53:54;28.10;99.90
18888;DHT22;9576;47.792;9.628;2022-08-21T12:57:01;28.30;99.90
18888;DHT22;9576;47.792;9.628;2022-08-21T13:00:07;28.30;99.90
18888;DHT22;9576;47.792;9.628;2022-08-21T13:03:09;28.30;99.90
18888;DHT22;9576;47.792;9.628;2022-08-21T13:06:16;28.70;99.90
18888;DHT22;9576;47.792;9.628;2022-08-21T13:09:21;28.50;99.90
18888;DHT22;9576;47.792;9.628;2022-08-21T13:12:28;28.50;99.90
18888;DHT22;9576;47.792;9.628;2022-08-21T13:15:33;29.00;99.90
18888;DHT22;9576;47.792;9.628;2022-08-21T13:18:54;29.40;99.70
18888;DHT22;9576;47.792;9.628;2022-08-21T13:21:57;29.60;99.50
18888;DHT22;9576;47.792;9.628;2022-08-21T13:25:01;29.80;98.00
18888;DHT22;9576;47.792;9.628;2022-08-21T13:28:09;30.10;98.00
18888;DHT22;9576;47.792;9.628;2022-08-21T13:31:17;30.10;98.00
18888;DHT22;9576;47.792;9.628;2022-08-21T13:34:21;30.10;95.90
18888;DHT22;9576;47.792;9.628;2022-08-21T13:37:26;30.00;93.50
18888;DHT22;9576;47.792;9.628;2022-08-21T13:40:32;29.40;92.40
18888;DHT22;9576;47.792;9.628;2022-08-21T13:43:36;29.60;95.40
18888;DHT22;9576;47.792;9.628;2022-08-21T13:46:39;29.90;92.50
18888;DHT22;9576;47.792;9.628;2022-08-21T13:49:44;30.30;94.80
18888;DHT22;9576;47.792;9.628;2022-08-21T13:52:53;30.50;96.40
18888;DHT22;9576;47.792;9.628;2022-08-21T13:55:56;31.20;97.10
18888;DHT22;9576;47.792;9.628;2022-08-21T13:59:02;31.80;94.90
18888;DHT22;9576;47.792;9.628;2022-08-21T14:02:12;31.90;93.90
18888;DHT22;9576;47.792;9.628;2022-08-21T14:05:19;31.60;92.40
18888;DHT22;9576;47.792;9.628;2022-08-21T14:08:29;31.50;92.70
18888;DHT22;9576;47.792;9.628;2022-08-21T14:11:34;31.70;92.80
18888;DHT22;9576;47.792;9.628;2022-08-21T14:14:38;32.40;91.70
18888;DHT22;9576;47.792;9.628;2022-08-21T14:17:41;32.40;93.00
18888;DHT22;9576;47.792;9.628;2022-08-21T14:20:44;32.40;91.90
18888;DHT22;9576;47.792;9.628;2022-08-21T14:23:46;32.20;95.30
18888;DHT22;9576;47.792;9.628;2022-08-21T14:26:50;32.30;90.80
18888;DHT22;9576;47.792;9.628;2022-08-21T14:29:58;32.30;90.20
18888;DHT22;9576;47.792;9.628;2022-08-21T14:33:01;33.00;92.50
18888;DHT22;9576;47.792;9.628;2022-08-21T14:36:03;33.80;88.20
18888;DHT22;9576;47.792;9.628;2022-08-21T14:39:05;34.40;87.90
18888;DHT22;9576;47.792;9.628;2022-08-21T14:42:07;34.50;88.80
18888;DHT22;9576;47.792;9.628;2022-08-21T14:45:15;34.40;84.50
18888;DHT22;9576;47.792;9.628;2022-08-21T14:48:17;34.60;83.70
18888;DHT22;9576;47.792;9.628;2022-08-21T14:51:20;34.90;88.20
18888;DHT22;9576;47.792;9.628;2022-08-21T14:54:22;35.10;83.10
18888;DHT22;9576;47.792;9.628;2022-08-21T14:57:26;35.80;84.20
18888;DHT22;9576;47.792;9.628;2022-08-21T15:00:30;36.40;84.60
18888;DHT22;9576;47.792;9.628;2022-08-21T15:03:33;36.20;77.90
18888;DHT22;9576;47.792;9.628;2022-08-21T15:06:35;36.20;78.60
18888;DHT22;9576;47.792;9.628;2022-08-21T15:09:37;36.70;75.80
18888;DHT22;9576;47.792;9.628;2022-08-21T15:12:39;36.80;74.50
18888;DHT22;9576;47.792;9.628;2022-08-21T15:15:45;37.30;77.40
18888;DHT22;9576;47.792;9.628;2022-08-21T15:18:49;36.30;73.10
18888;DHT22;9576;47.792;9.628;2022-08-21T15:21:51;35.80;77.60
18888;DHT22;9576;47.792;9.628;2022-08-21T15:24:53;35.50;77.40
18888;DHT22;9576;47.792;9.628;2022-08-21T15:27:56;35.60;75.70
18888;DHT22;9576;47.792;9.628;2022-08-21T15:31:01;35.60;77.50
18888;DHT22;9576;47.792;9.628;2022-08-21T15:34:03;36.70;78.40
18888;DHT22;9576;47.792;9.628;2022-08-21T15:37:05;37.40;72.70
18888;DHT22;9576;47.792;9.628;2022-08-21T15:40:09;36.70;72.50
18888;DHT22;9576;47.792;9.628;2022-08-21T15:43:25;37.10;76.00
18888;DHT22;9576;47.792;9.628;2022-08-21T15:46:29;38.00;73.60
18888;DHT22;9576;47.792;9.628;2022-08-21T15:49:31;38.30;74.60
18888;DHT22;9576;47.792;9.628;2022-08-21T15:52:33;39.10;70.70
18888;DHT22;9576;47.792;9.628;2022-08-21T15:55:36;39.90;68.60
18888;DHT22;9576;47.792;9.628;2022-08-21T15:58:38;39.90;66.60
18888;DHT22;9576;47.792;9.628;2022-08-21T16:01:42;40.20;66.60
18888;DHT22;9576;47.792;9.628;2022-08-21T16:04:45;39.60;65.00
18888;DHT22;9576;47.792;9.628;2022-08-21T16:07:48;38.30;64.70
18888;DHT22;9576;47.792;9.628;2022-08-21T16:10:52;38.20;68.10
18888;DHT22;9576;47.792;9.628;2022-08-21T16:13:55;37.80;66.70
18888;DHT22;9576;47.792;9.628;2022-08-21T16:16:59;38.30;70.00
18888;DHT22;9576;47.792;9.628;2022-08-21T16:20:04;39.30;64.80
18888;DHT22;9576;47.792;9.628;2022-08-21T16:23:07;39.40;61.90
18888;DHT22;9576;47.792;9.628;2022-08-21T16:26:11;40.20;65.40
18888;DHT22;9576;47.792;9.628;2022-08-21T16:29:14;39.80;60.50
18888;DHT22;9576;47.792;9.628;2022-08-21T16:32:18;40.90;63.60
18888;DHT22;9576;47.792;9.628;2022-08-21T16:35:21;41.00;59.80
18888;DHT22;9576;47.792;9.628;2022-08-21T16:38:24;41.70;57.70
18888;DHT22;9576;47.792;9.628;2022-08-21T16:41:30;42.00;56.70
18888;DHT22;9576;47.792;9.628;2022-08-21T16:44:32;41.70;57.50
18888;DHT22;9576;47.792;9.628;2022-08-21T16:47:36;41.20;58.20
18888;DHT22;9576;47.792;9.628;2022-08-21T16:50:38;40.50;56.50
18888;DHT22;9576;47.792;9.628;2022-08-21T16:53:41;40.30;59.80
18888;DHT22;9576;47.792;9.628;2022-08-21T16:56:43;40.80;58.00
18888;DHT22;9576;47.792;9.628;2022-08-21T16:59:46;41.30;59.90
18888;DHT22;9576;47.792;9.628;2022-08-21T17:02:53;41.50;58.60
18888;DHT22;9576;47.792;9.628;2022-08-21T17:05:55;41.30;58.40
18888;DHT22;9576;47.792;9.628;2022-08-21T17:08:58;39.80;56.70
18888;DHT22;9576;47.792;9.628;2022-08-21T17:12:00;38.20;57.50
18888;DHT22;9576;47.792;9.628;2022-08-21T17:15:06;37.30;58.30
18888;DHT22;9576;47.792;9.628;2022-08-21T17:18:17;37.00;59.30
18888;DHT22;9576;47.792;9.628;2022-08-21T17:21:20;36.60;58.80
18888;DHT22;9576;47.792;9.628;2022-08-21T17:24:23;36.70;60.30
18888;DHT22;9576;47.792;9.628;2022-08-21T17:27:26;36.00;60.40
18888;DHT22;9576;47.792;9.628;2022-08-21T17:30:28;34.60;62.60
18888;DHT22;9576;47.792;9.628;2022-08-21T17:33:36;33.40;65.60
18888;DHT22;9576;47.792;9.628;2022-08-21T17:36:39;32.10;68.10
18888;DHT22;9576;47.792;9.628;2022-08-21T17:39:41;30.90;71.00
18888;DHT22;9576;47.792;9.628;2022-08-21T17:42:45;29.90;76.50
18888;DHT22;9576;47.792;9.628;2022-08-21T17:45:47;29.00;76.40
18888;DHT22;9576;47.792;9.628;2022-08-21T17:48:51;28.10;81.70
18888;DHT22;9576;47.792;9.628;2022-08-21T17:51:53;27.40;86.10
18888;DHT22;9576;47.792;9.628;2022-08-21T17:54:55;26.80;90.00
18888;DHT22;9576;47.792;9.628;2022-08-21T17:57:57;26.20;91.30
18888;DHT22;9576;47.792;9.628;2022-08-21T18:01:02;25.50;92.40
18888;DHT22;9576;47.792;9.628;2022-08-21T18:04:06;25.00;93.00
18888;DHT22;9576;47.792;9.628;2022-08-21T18:07:09;24.60;94.40
18888;DHT22;9576;47.792;9.628;2022-08-21T18:10:11;24.20;95.20
18888;DHT22;9576;47.792;9.628;2022-08-21T18:13:16;23.90;95.90
18888;DHT22;9576;47.792;9.628;2022-08-21T18:16:21;23.50;97.00
18888;DHT22;9576;47.792;9.628;2022-08-21T18:19:24;23.20;97.90
18888;DHT22;9576;47.792;9.628;2022-08-21T18:22:27;23.00;98.70
18888;DHT22;9576;47.792;9.628;2022-08-21T18:25:29;22.70;98.90
18888;DHT22;9576;47.792;9.628;2022-08-21T18:28:34;22.50;99.90
18888;DHT22;9576;47.792;9.628;2022-08-21T18:31:38;22.20;99.80
18888;DHT22;9576;47.792;9.628;2022-08-21T18:34:42;21.90;99.90
18888;DHT22;9576;47.792;9.628;2022-08-21T18:37:45;21.70;99.90
18888;DHT22;9576;47.792;9.628;2022-08-21T18:40:50;21.40;99.90
18888;DHT22;9576;47.792;9.628;2022-08-21T18:43:53;21.10;99.90
18888;DHT22;9576;47.792;9.628;2022-08-21T18:46:58;21.00;99.90
18888;DHT22;9576;47.792;9.628;2022-08-21T18:50:02;20.90;99.90
18888;DHT22;9576;47.792;9.628;2022-08-21T18:53:06;20.80;99.90
18888;DHT22;9576;47.792;9.628;2022-08-21T18:56:08;20.70;99.90
18888;DHT22;9576;47.792;9.628;2022-08-21T18:59:11;20.60;99.90
18888;DHT22;9576;47.792;9.628;2022-08-21T19:02:14;20.50;99.90
18888;DHT22;9576;47.792;9.628;2022-08-21T19:05:19;20.40;99.90
18888;DHT22;9576;47.792;9.628;2022-08-21T19:08:22;20.40;99.90
18888;DHT22;9576;47.792;9.628;2022-08-21T19:11:27;20.30;99.90
18888;DHT22;9576;47.792;9.628;2022-08-21T19:14:30;20.20;99.90
18888;DHT22;9576;47.792;9.628;2022-08-21T19:17:32;20.10;99.90
18888;DHT22;9576;47.792;9.628;2022-08-21T19:20:36;20.00;99.90
18888;DHT22;9576;47.792;9.628;2022-08-21T19:23:41;20.00;99.90
18888;DHT22;9576;47.792;9.628;2022-08-21T19:26:47;19.90;99.90
18888;DHT22;9576;47.792;9.628;2022-08-21T19:29:50;19.80;99.90
18888;DHT22;9576;47.792;9.628;2022-08-21T19:32:52;19.70;99.90
18888;DHT22;9576;47.792;9.628;2022-08-21T19:35:56;19.60;99.90
18888;DHT22;9576;47.792;9.628;2022-08-21T19:38:59;19.50;99.90
18888;DHT22;9576;47.792;9.628;2022-08-21T19:42:01;19.50;99.90
18888;DHT22;9576;47.792;9.628;2022-08-21T19:45:04;19.40;99.90